createdAt,value
2017-09-12T00:02:01.534Z,12.60
2017-09-12T00:04:29.914Z,12.60
2017-09-12T00:06:57.549Z,12.50
2017-09-12T00:09:25.180Z,12.50
2017-09-12T00:11:52.818Z,12.50
2017-09-12T00:14:20.434Z,12.50
2017-09-12T00:16:48.339Z,12.40
2017-09-12T00:19:15.976Z,12.40
2017-09-12T00:21:44.358Z,12.40
2017-09-12T00:24:12.752Z,12.40
2017-09-12T00:26:40.373Z,12.30
2017-09-12T00:29:07.994Z,12.30
2017-09-12T00:31:35.624Z,12.30
2017-09-12T00:34:03.248Z,12.30
2017-09-12T00:36:30.863Z,12.30
2017-09-12T00:38:58.499Z,12.30
2017-09-12T00:41:26.832Z,12.30
2017-09-12T00:43:54.413Z,12.30
2017-09-12T00:46:21.988Z,12.30
2017-09-12T00:48:50.424Z,12.30
2017-09-12T00:51:18.003Z,12.30
2017-09-12T00:53:45.562Z,12.30
2017-09-12T00:56:13.148Z,12.30
2017-09-12T00:58:41.488Z,12.30
2017-09-12T01:01:09.080Z,12.30
2017-09-12T01:03:37.416Z,12.30
2017-09-12T01:06:04.988Z,12.30
2017-09-12T01:08:32.558Z,12.40
2017-09-12T01:11:00.139Z,12.40
2017-09-12T01:13:27.698Z,12.40
2017-09-12T01:15:56.336Z,12.50
2017-09-12T01:18:23.906Z,12.50
2017-09-12T01:20:51.476Z,12.50
2017-09-12T01:23:19.042Z,12.50
2017-09-12T01:25:47.393Z,12.50
2017-09-12T01:28:14.995Z,12.40
2017-09-12T01:30:42.567Z,12.50
2017-09-12T01:33:11.136Z,12.40
2017-09-12T01:35:38.703Z,12.40
2017-09-12T01:38:06.276Z,12.40
2017-09-12T01:40:33.836Z,12.40
2017-09-12T01:43:01.402Z,12.40
2017-09-12T01:45:28.963Z,12.40
2017-09-12T01:47:56.948Z,12.40
2017-09-12T01:50:24.520Z,12.40
2017-09-12T01:52:52.109Z,12.40
2017-09-12T01:55:20.438Z,12.40
2017-09-12T01:58:00.178Z,12.40
2017-09-12T02:00:27.767Z,12.40
2017-09-12T02:02:55.326Z,12.40
2017-09-12T02:05:22.914Z,12.40
2017-09-12T02:07:50.478Z,12.40
2017-09-12T02:10:18.050Z,12.40
2017-09-12T02:12:45.620Z,12.40
2017-09-12T02:15:13.189Z,12.40
2017-09-12T02:17:40.766Z,12.40
2017-09-12T02:20:08.602Z,12.40
2017-09-12T02:22:36.159Z,12.40
2017-09-12T02:25:03.822Z,12.40
2017-09-12T02:27:31.408Z,12.40
2017-09-12T02:29:58.999Z,12.40
2017-09-12T02:32:27.326Z,12.40
2017-09-12T02:34:54.885Z,12.40
2017-09-12T02:37:22.461Z,12.40
2017-09-12T02:39:50.034Z,12.40
2017-09-12T02:42:17.892Z,12.40
2017-09-12T02:44:45.459Z,12.40
2017-09-12T02:47:13.014Z,12.40
2017-09-12T02:49:40.604Z,12.40
2017-09-12T02:52:08.926Z,12.40
2017-09-12T02:54:36.488Z,12.40
2017-09-12T02:57:04.042Z,12.50
2017-09-12T02:59:31.623Z,12.40
2017-09-12T03:01:59.204Z,12.40
2017-09-12T03:04:27.850Z,12.40
2017-09-12T03:06:55.410Z,12.40
2017-09-12T03:09:22.967Z,12.40
2017-09-12T03:11:50.545Z,12.40
2017-09-12T03:14:18.118Z,12.40
2017-09-12T03:16:45.700Z,12.40
2017-09-12T03:19:13.272Z,12.40
2017-09-12T03:21:40.843Z,12.40
2017-09-12T03:24:08.412Z,12.30
2017-09-12T03:26:36.287Z,12.40
2017-09-12T03:29:04.626Z,12.40
2017-09-12T03:31:32.189Z,12.40
2017-09-12T03:33:59.766Z,12.30
2017-09-12T03:36:27.345Z,12.30
2017-09-12T03:38:54.905Z,12.40
2017-09-12T03:41:22.458Z,12.40
2017-09-12T03:43:50.030Z,12.40
2017-09-12T03:46:17.603Z,12.40
2017-09-12T03:48:45.201Z,12.40
2017-09-12T03:51:12.966Z,12.40
2017-09-12T03:53:40.563Z,12.40
2017-09-12T03:56:08.145Z,12.40
2017-09-12T03:58:36.094Z,12.40
2017-09-12T04:01:05.203Z,12.40
2017-09-12T04:03:32.756Z,12.40
2017-09-12T04:06:00.339Z,12.40
2017-09-12T04:08:28.672Z,12.30
2017-09-12T04:10:56.244Z,12.30
2017-09-12T04:13:23.910Z,12.30
2017-09-12T04:15:51.600Z,12.30
2017-09-12T04:18:19.946Z,12.30
2017-09-12T04:20:47.521Z,12.20
2017-09-12T04:23:15.089Z,12.30
2017-09-12T04:25:43.447Z,12.20
2017-09-12T04:28:11.031Z,12.20
2017-09-12T04:30:39.370Z,12.20
2017-09-12T04:33:06.941Z,12.20
2017-09-12T04:35:34.506Z,12.20
2017-09-12T04:38:02.453Z,12.20
2017-09-12T04:40:30.048Z,12.20
2017-09-12T04:42:58.374Z,12.20
2017-09-12T04:45:25.955Z,12.20
2017-09-12T04:47:54.286Z,12.20
2017-09-12T04:50:21.872Z,12.20
2017-09-12T04:52:49.452Z,12.20
2017-09-12T04:55:17.404Z,12.30
2017-09-12T04:57:44.984Z,12.30
2017-09-12T05:00:12.567Z,12.30
2017-09-12T05:02:40.950Z,12.40
2017-09-12T05:05:08.525Z,12.40
2017-09-12T05:07:36.370Z,12.40
2017-09-12T05:10:04.783Z,12.50
2017-09-12T05:12:32.348Z,12.50
2017-09-12T05:14:59.940Z,12.50
2017-09-12T05:17:27.524Z,12.50
2017-09-12T05:19:56.167Z,12.50
2017-09-12T05:22:24.498Z,12.50
2017-09-12T05:24:52.072Z,12.50
2017-09-12T05:27:19.665Z,12.60
2017-09-12T05:29:47.237Z,12.60
2017-09-12T05:32:16.107Z,12.60
2017-09-12T05:34:44.474Z,12.60
2017-09-12T05:37:12.396Z,12.60
2017-09-12T05:39:40.743Z,12.70
2017-09-12T05:42:08.317Z,12.60
2017-09-12T05:44:35.905Z,12.70
2017-09-12T05:47:03.517Z,12.70
2017-09-12T05:49:31.479Z,12.70
2017-09-12T05:51:59.051Z,12.80
2017-09-12T05:54:26.624Z,12.80
2017-09-12T05:56:54.549Z,12.80
2017-09-12T05:59:22.876Z,12.80
2017-09-12T06:01:50.444Z,12.80
2017-09-12T06:04:18.044Z,12.90
2017-09-12T06:06:45.624Z,12.90
2017-09-12T06:09:13.589Z,12.90
2017-09-12T06:11:41.203Z,12.90
2017-09-12T06:14:08.773Z,12.90
2017-09-12T06:16:36.403Z,12.90
2017-09-12T06:19:03.995Z,12.90
2017-09-12T06:21:31.855Z,12.90
2017-09-12T06:23:59.413Z,12.90
2017-09-12T06:26:26.946Z,12.90
2017-09-12T06:28:54.783Z,12.90
2017-09-12T06:31:23.093Z,12.80
2017-09-12T06:33:50.620Z,12.80
2017-09-12T06:36:18.957Z,12.80
2017-09-12T06:38:46.603Z,12.80
2017-09-12T06:41:14.173Z,12.80
2017-09-12T06:43:41.784Z,12.80
2017-09-12T06:46:09.376Z,12.90
2017-09-12T06:48:36.985Z,12.90
2017-09-12T06:51:05.340Z,12.90
2017-09-12T06:53:32.917Z,12.90
2017-09-12T06:56:01.283Z,13.00
2017-09-12T06:58:28.867Z,13.00
2017-09-12T07:00:56.480Z,13.00
2017-09-12T07:03:24.143Z,13.00
2017-09-12T07:05:51.734Z,13.10
2017-09-12T07:08:20.055Z,13.10
2017-09-12T07:10:47.901Z,13.10
2017-09-12T07:13:15.489Z,13.10
2017-09-12T07:15:43.099Z,13.00
2017-09-12T07:18:11.465Z,13.00
2017-09-12T07:20:39.049Z,13.00
2017-09-12T07:23:06.678Z,13.00
2017-09-12T07:25:34.238Z,13.00
2017-09-12T07:28:02.883Z,12.90
2017-09-12T07:30:30.465Z,13.00
2017-09-12T07:32:58.807Z,12.90
2017-09-12T07:35:26.390Z,12.90
2017-09-12T07:37:53.956Z,12.90
2017-09-12T07:40:22.315Z,12.90
2017-09-12T07:42:49.884Z,12.90
2017-09-12T07:45:18.252Z,12.90
2017-09-12T07:47:45.837Z,12.90
2017-09-12T07:50:14.171Z,12.90
2017-09-12T07:52:41.754Z,12.90
2017-09-12T07:55:09.312Z,12.90
2017-09-12T07:57:36.923Z,13.00
2017-09-12T08:00:04.512Z,13.00
2017-09-12T08:02:32.104Z,13.00
2017-09-12T08:05:00.422Z,13.00
2017-09-12T08:07:28.319Z,13.00
2017-09-12T08:09:55.915Z,13.00
2017-09-12T08:12:23.490Z,13.00
2017-09-12T08:14:51.067Z,12.90
2017-09-12T08:17:18.641Z,12.90
2017-09-12T08:19:46.229Z,12.90
2017-09-12T08:22:14.187Z,12.80
2017-09-12T08:24:41.749Z,12.80
2017-09-12T08:27:09.325Z,12.70
2017-09-12T08:29:37.670Z,12.80
2017-09-12T08:32:05.248Z,12.80
2017-09-12T08:34:32.819Z,12.80
2017-09-12T08:37:01.147Z,12.80
2017-09-12T08:39:28.771Z,12.80
2017-09-12T08:41:56.334Z,12.80
2017-09-12T08:44:23.931Z,12.90
2017-09-12T08:46:51.499Z,13.00
2017-09-12T08:49:19.090Z,13.10
2017-09-12T08:51:47.433Z,13.30
2017-09-12T08:54:15.304Z,13.30
2017-09-12T08:56:42.885Z,13.30
2017-09-12T08:59:10.453Z,13.30
2017-09-12T09:01:38.793Z,13.40
2017-09-12T09:04:06.384Z,13.40
2017-09-12T09:06:33.949Z,13.40
2017-09-12T09:09:02.310Z,13.60
2017-09-12T09:11:29.892Z,13.60
2017-09-12T09:13:57.476Z,13.60
2017-09-12T09:16:25.060Z,13.40
2017-09-12T09:18:52.628Z,13.40
2017-09-12T09:21:21.056Z,13.40
2017-09-12T09:23:48.629Z,13.40
2017-09-12T09:26:16.188Z,13.50
2017-09-12T09:28:43.752Z,13.50
2017-09-12T09:31:11.321Z,13.50
2017-09-12T09:33:38.905Z,13.50
2017-09-12T09:36:06.464Z,13.60
2017-09-12T09:38:34.042Z,13.70
2017-09-12T09:41:01.638Z,13.80
2017-09-12T09:43:29.254Z,13.90
2017-09-12T09:45:56.851Z,13.80
2017-09-12T09:48:24.735Z,13.80
2017-09-12T09:50:52.582Z,13.80
2017-09-12T09:53:20.274Z,14.00
2017-09-12T09:55:47.842Z,14.10
2017-09-12T09:58:15.406Z,14.10
2017-09-12T10:00:43.003Z,14.10
2017-09-12T10:03:11.366Z,14.40
2017-09-12T10:05:38.953Z,14.40
2017-09-12T10:08:06.524Z,14.50
2017-09-12T10:10:34.096Z,14.60
2017-09-12T10:13:01.680Z,14.80
2017-09-12T10:15:29.268Z,14.70
2017-09-12T10:17:57.653Z,14.80
2017-09-12T10:20:26.309Z,15.00
2017-09-12T10:22:53.896Z,14.90
2017-09-12T10:25:22.252Z,15.10
2017-09-12T10:27:49.843Z,15.00
2017-09-12T10:30:18.193Z,15.30
2017-09-12T10:32:45.793Z,15.30
2017-09-12T10:35:13.375Z,15.10
2017-09-12T10:37:40.971Z,15.10
2017-09-12T10:40:08.526Z,15.10
2017-09-12T10:42:36.122Z,15.10
2017-09-12T10:45:03.704Z,15.10
2017-09-12T10:47:31.607Z,15.30
2017-09-12T10:49:59.200Z,15.20
2017-09-12T10:52:27.545Z,14.80
2017-09-12T10:54:55.160Z,14.80
2017-09-12T10:57:22.735Z,14.70
2017-09-12T10:59:50.325Z,14.60
2017-09-12T11:02:17.928Z,14.60
2017-09-12T11:04:45.509Z,14.80
2017-09-12T11:07:13.090Z,14.90
2017-09-12T11:09:40.696Z,15.00
2017-09-12T11:12:08.295Z,15.10
2017-09-12T11:14:35.906Z,15.00
2017-09-12T11:17:04.282Z,15.10
2017-09-12T11:19:32.633Z,15.30
2017-09-12T11:22:00.238Z,15.20
2017-09-12T11:24:27.820Z,15.40
2017-09-12T11:26:55.419Z,15.60
2017-09-12T11:29:23.021Z,15.80
2017-09-12T11:31:50.622Z,16.00
2017-09-12T11:34:18.240Z,16.10
2017-09-12T11:36:45.935Z,15.90
2017-09-12T11:39:13.519Z,16.00
2017-09-12T11:41:41.112Z,16.10
2017-09-12T11:44:08.698Z,16.10
2017-09-12T11:46:36.634Z,16.40
2017-09-12T11:49:05.023Z,16.40
2017-09-12T11:51:32.598Z,16.40
2017-09-12T11:54:00.200Z,16.20
2017-09-12T11:56:27.760Z,15.80
2017-09-12T11:58:55.348Z,15.50
2017-09-12T12:01:23.686Z,15.10
2017-09-12T12:03:51.290Z,15.10
2017-09-12T12:06:19.636Z,14.70
2017-09-12T12:08:47.214Z,14.70
2017-09-12T12:11:15.553Z,14.70
2017-09-12T12:13:43.423Z,14.70
2017-09-12T12:16:11.782Z,15.20
2017-09-12T12:18:39.336Z,15.20
2017-09-12T12:21:06.923Z,15.20
2017-09-12T12:23:34.508Z,15.00
2017-09-12T12:26:02.901Z,13.10
2017-09-12T12:28:30.503Z,13.00
2017-09-12T12:30:58.114Z,12.00
2017-09-12T12:33:25.976Z,11.50
2017-09-12T12:35:54.426Z,11.10
2017-09-12T12:38:22.915Z,11.10
2017-09-12T12:40:50.544Z,11.20
2017-09-12T12:43:18.117Z,11.20
2017-09-12T12:45:46.075Z,11.40
2017-09-12T12:48:13.642Z,11.60
2017-09-12T12:50:41.213Z,11.80
2017-09-12T12:53:08.862Z,12.00
2017-09-12T12:55:36.431Z,12.20
2017-09-12T12:58:04.082Z,12.30
2017-09-12T13:00:31.720Z,12.40
2017-09-12T13:02:59.582Z,12.30
2017-09-12T13:05:27.184Z,12.30
2017-09-12T13:07:54.750Z,12.30
2017-09-12T13:10:23.242Z,12.10
2017-09-12T13:12:51.589Z,12.10
2017-09-12T13:15:19.180Z,12.10
2017-09-12T13:17:46.764Z,12.10
2017-09-12T13:20:14.684Z,12.20
2017-09-12T13:22:42.260Z,12.30
2017-09-12T13:25:10.599Z,12.70
2017-09-12T13:27:38.191Z,12.70
2017-09-12T13:30:05.769Z,13.00
2017-09-12T13:32:34.123Z,13.50
2017-09-12T13:35:01.713Z,13.50
2017-09-12T13:37:30.056Z,13.50
2017-09-12T13:39:57.636Z,13.50
2017-09-12T13:42:25.992Z,13.20
2017-09-12T13:44:53.596Z,13.20
2017-09-12T13:47:21.497Z,13.20
2017-09-12T13:49:49.056Z,13.10
2017-09-12T13:52:16.653Z,13.00
2017-09-12T13:54:45.010Z,13.20
2017-09-12T13:57:12.618Z,13.20
2017-09-12T13:59:40.213Z,13.40
2017-09-12T14:02:07.803Z,13.30
2017-09-12T14:04:35.396Z,13.50
2017-09-12T14:07:02.986Z,13.80
2017-09-12T14:09:30.596Z,15.10
2017-09-12T14:11:58.270Z,17.30
2017-09-12T14:14:25.890Z,19.40
2017-09-12T14:16:53.492Z,19.60
2017-09-12T14:19:21.363Z,18.90
2017-09-12T14:21:48.956Z,18.20
2017-09-12T14:24:16.533Z,17.00
2017-09-12T14:26:44.115Z,16.00
2017-09-12T14:29:12.504Z,14.80
2017-09-12T14:31:40.094Z,14.70
2017-09-12T14:34:07.663Z,14.50
2017-09-12T14:36:35.259Z,14.30
2017-09-12T14:39:02.845Z,14.50
2017-09-12T14:41:30.430Z,15.20
2017-09-12T14:43:58.091Z,15.50
2017-09-12T14:46:26.092Z,16.30
2017-09-12T14:48:53.672Z,18.60
2017-09-12T14:51:22.357Z,24.50
2017-09-12T14:53:50.790Z,24.40
2017-09-12T14:56:19.501Z,25.20
2017-09-12T14:58:47.072Z,25.20
2017-09-12T15:01:15.429Z,25.50
2017-09-12T15:03:43.055Z,25.40
2017-09-12T15:06:10.615Z,24.00
2017-09-12T15:08:38.512Z,24.00
2017-09-12T15:11:06.121Z,24.20
2017-09-12T15:13:33.701Z,25.90
2017-09-12T15:16:01.289Z,26.10
2017-09-12T15:18:28.894Z,26.60
2017-09-12T15:20:56.477Z,26.10
2017-09-12T15:23:24.110Z,27.20
2017-09-12T15:25:51.706Z,27.60
2017-09-12T15:28:19.288Z,28.30
2017-09-12T15:30:47.163Z,29.30
2017-09-12T15:33:14.724Z,28.50
2017-09-12T15:35:43.276Z,28.10
2017-09-12T15:38:10.906Z,27.60
2017-09-12T15:40:38.520Z,24.50
2017-09-12T15:43:06.902Z,22.30
2017-09-12T15:45:35.258Z,21.00
2017-09-12T15:48:03.619Z,20.90
2017-09-12T15:50:31.189Z,20.20
2017-09-12T15:52:59.051Z,19.40
2017-09-12T15:55:27.060Z,18.40
2017-09-12T15:57:54.690Z,17.40
2017-09-12T16:00:23.062Z,15.90
2017-09-12T16:02:50.634Z,15.80
2017-09-12T16:05:18.970Z,15.30
2017-09-12T16:07:46.551Z,15.20
2017-09-12T16:10:14.595Z,14.90
2017-09-12T16:12:42.193Z,14.70
2017-09-12T16:15:10.536Z,14.10
2017-09-12T16:17:38.133Z,14.10
2017-09-12T16:20:06.465Z,13.80
2017-09-12T16:22:34.062Z,13.70
2017-09-12T16:25:02.402Z,13.60
2017-09-12T16:27:30.370Z,13.60
2017-09-12T16:29:57.930Z,13.50
2017-09-12T16:32:25.515Z,13.40
2017-09-12T16:34:53.110Z,13.20
2017-09-12T16:37:20.689Z,13.10
2017-09-12T16:39:48.272Z,13.10
2017-09-12T16:42:15.832Z,13.20
2017-09-12T16:44:43.670Z,13.20
2017-09-12T16:47:11.240Z,13.20
2017-09-12T16:49:38.831Z,13.20
2017-09-12T16:52:06.392Z,13.10
2017-09-12T16:54:33.961Z,13.00
2017-09-12T16:57:02.353Z,13.00
2017-09-12T16:59:29.936Z,12.90
2017-09-12T17:01:57.908Z,12.80
2017-09-12T17:04:25.504Z,12.70
2017-09-12T17:06:53.091Z,12.50
2017-09-12T17:09:21.508Z,12.40
2017-09-12T17:11:49.086Z,12.40
2017-09-12T17:14:16.951Z,12.40
2017-09-12T17:16:44.528Z,12.40
2017-09-12T17:19:12.119Z,12.40
2017-09-12T17:21:40.492Z,12.30
2017-09-12T17:24:08.854Z,12.20
2017-09-12T17:26:37.324Z,12.20
2017-09-12T17:29:04.943Z,12.20
2017-09-12T17:31:33.746Z,12.20
2017-09-12T17:34:01.322Z,12.20
2017-09-12T17:36:28.918Z,12.10
2017-09-12T17:38:57.266Z,12.10
2017-09-12T17:41:24.846Z,12.00
2017-09-12T17:43:53.219Z,12.00
2017-09-12T17:46:20.867Z,12.00
2017-09-12T17:48:48.728Z,12.00
2017-09-12T17:51:16.287Z,12.00
2017-09-12T17:53:43.866Z,12.00
2017-09-12T17:56:12.275Z,11.90
2017-09-12T17:58:39.871Z,11.90
2017-09-12T18:01:07.476Z,11.90
2017-09-12T18:03:35.882Z,11.80
2017-09-12T18:06:03.788Z,11.80
2017-09-12T18:08:31.375Z,11.70
2017-09-12T18:10:59.714Z,11.60
2017-09-12T18:13:28.066Z,11.60
2017-09-12T18:15:55.641Z,11.50
2017-09-12T18:18:23.526Z,11.50
2017-09-12T18:20:51.105Z,11.40
2017-09-12T18:23:19.460Z,11.40
2017-09-12T18:25:47.062Z,11.30
2017-09-12T18:28:14.638Z,11.30
2017-09-12T18:30:42.239Z,11.30
2017-09-12T18:33:09.815Z,11.20
2017-09-12T18:35:37.404Z,11.20
2017-09-12T18:38:05.064Z,11.20
2017-09-12T18:40:32.930Z,11.20
2017-09-12T18:43:00.506Z,11.20
2017-09-12T18:45:28.089Z,11.30
2017-09-12T18:47:55.833Z,11.40
2017-09-12T18:50:23.411Z,11.40
2017-09-12T18:52:51.011Z,11.40
2017-09-12T18:55:19.368Z,11.60
2017-09-12T18:57:46.982Z,11.60
2017-09-12T19:00:14.570Z,11.60
2017-09-12T19:02:42.474Z,11.60
2017-09-12T19:05:10.112Z,11.60
2017-09-12T19:07:37.711Z,11.70
2017-09-12T19:10:05.352Z,11.60
2017-09-12T19:12:33.719Z,11.70
2017-09-12T19:15:01.333Z,11.70
2017-09-12T19:17:28.945Z,11.80
2017-09-12T19:19:56.551Z,11.80
2017-09-12T19:22:24.151Z,11.80
2017-09-12T19:24:52.226Z,11.70
2017-09-12T19:27:19.861Z,11.70
2017-09-12T19:29:48.270Z,11.60
2017-09-12T19:32:15.968Z,11.60
2017-09-12T19:34:43.587Z,11.60
2017-09-12T19:37:11.200Z,11.60
2017-09-12T19:39:38.801Z,11.60
2017-09-12T19:42:06.660Z,11.50
2017-09-12T19:44:34.239Z,11.50
2017-09-12T19:47:02.609Z,11.60
2017-09-12T19:49:31.118Z,11.50
2017-09-12T19:51:59.485Z,11.50
2017-09-12T19:54:27.836Z,11.60
2017-09-12T19:56:55.444Z,11.60
2017-09-12T19:59:23.453Z,11.50
2017-09-12T20:01:51.062Z,11.50
2017-09-12T20:04:18.634Z,11.60
2017-09-12T20:06:46.985Z,11.50
2017-09-12T20:09:14.625Z,11.50
2017-09-12T20:11:42.259Z,11.50
2017-09-12T20:14:10.648Z,11.60
2017-09-12T20:16:39.042Z,11.60
2017-09-12T20:19:06.659Z,11.60
2017-09-12T20:21:34.255Z,11.60
2017-09-12T20:24:01.875Z,11.60
2017-09-12T20:26:29.762Z,11.60
2017-09-12T20:28:58.138Z,11.60
2017-09-12T20:31:25.974Z,11.60
2017-09-12T20:33:53.618Z,11.60
2017-09-12T20:36:21.227Z,11.60
2017-09-12T20:38:49.770Z,11.60
2017-09-12T20:41:17.507Z,11.60
2017-09-12T20:43:45.099Z,11.60
2017-09-12T20:46:12.700Z,11.70
2017-09-12T20:48:40.282Z,11.70
2017-09-12T20:51:07.849Z,11.60
2017-09-12T20:53:35.611Z,11.60
2017-09-12T20:56:03.257Z,11.50
2017-09-12T20:58:30.839Z,11.50
2017-09-12T21:00:58.433Z,11.50
2017-09-12T21:03:26.413Z,11.50
2017-09-12T21:05:54.794Z,11.40
2017-09-12T21:08:23.122Z,11.50
2017-09-12T21:10:50.709Z,11.50
2017-09-12T21:13:18.342Z,11.40
2017-09-12T21:15:45.934Z,11.40
2017-09-12T21:18:13.524Z,11.40
2017-09-12T21:20:41.086Z,11.40
2017-09-12T21:23:08.718Z,11.50
2017-09-12T21:25:36.322Z,11.50
2017-09-12T21:28:03.991Z,11.60
2017-09-12T21:30:31.578Z,11.60
2017-09-12T21:32:59.209Z,11.60
2017-09-12T21:35:26.801Z,11.70
2017-09-12T21:37:54.550Z,11.70
2017-09-12T21:40:22.129Z,11.60
2017-09-12T21:42:49.703Z,11.60
2017-09-12T21:45:18.063Z,11.50
2017-09-12T21:47:45.639Z,11.50
2017-09-12T21:50:14.082Z,11.50
2017-09-12T21:52:41.644Z,11.40
2017-09-12T21:55:09.236Z,11.40
2017-09-12T21:57:36.806Z,11.30
2017-09-12T22:00:05.229Z,11.20
2017-09-12T22:02:33.722Z,11.20
2017-09-12T22:05:01.318Z,11.20
2017-09-12T22:07:29.664Z,11.10
2017-09-12T22:09:57.217Z,11.10
2017-09-12T22:12:24.811Z,11.10
2017-09-12T22:14:53.166Z,11.20
2017-09-12T22:17:20.772Z,11.20
2017-09-12T22:19:48.353Z,11.20
2017-09-12T22:22:15.975Z,11.20
2017-09-12T22:24:44.323Z,11.20
2017-09-12T22:27:11.884Z,11.20
2017-09-12T22:29:39.456Z,11.20
2017-09-12T22:32:07.028Z,11.20
2017-09-12T22:34:35.546Z,11.20
2017-09-12T22:37:03.116Z,11.20
2017-09-12T22:39:30.685Z,11.20
2017-09-12T22:41:58.259Z,11.20
2017-09-12T22:44:25.851Z,11.20
2017-09-12T22:46:54.183Z,11.20
2017-09-12T22:49:21.755Z,11.20
2017-09-12T22:51:49.337Z,11.20
2017-09-12T22:54:18.038Z,11.20
2017-09-12T22:56:45.610Z,11.20
2017-09-12T22:59:13.240Z,11.20
2017-09-12T23:01:41.594Z,11.10
2017-09-12T23:04:09.167Z,11.10
2017-09-12T23:06:37.520Z,11.00
2017-09-12T23:09:05.132Z,11.00
2017-09-12T23:11:32.736Z,11.00
2017-09-12T23:14:00.349Z,11.00
2017-09-12T23:16:28.991Z,11.00
2017-09-12T23:18:56.620Z,10.90
2017-09-12T23:21:24.172Z,10.90
2017-09-12T23:23:51.763Z,11.00
2017-09-12T23:26:19.346Z,11.00
2017-09-12T23:28:46.939Z,11.10
2017-09-12T23:31:14.559Z,11.00
2017-09-12T23:33:42.133Z,11.10
2017-09-12T23:36:10.464Z,11.00
2017-09-12T23:38:38.057Z,11.00
2017-09-12T23:41:05.731Z,11.00
2017-09-12T23:43:34.346Z,11.00
2017-09-12T23:46:01.937Z,10.90
2017-09-12T23:48:29.507Z,11.00
2017-09-12T23:50:57.109Z,10.90
2017-09-12T23:53:24.688Z,11.00
2017-09-12T23:55:52.276Z,11.00
2017-09-12T23:58:19.904Z,11.00
